createdAt,value
2019-02-22T00:00:52.528Z,19.27
2019-02-22T00:03:25.759Z,19.27
2019-02-22T00:05:59.010Z,19.25
2019-02-22T00:08:32.247Z,19.26
2019-02-22T00:11:05.511Z,19.23
2019-02-22T00:13:38.755Z,19.24
2019-02-22T00:16:13.071Z,19.24
2019-02-22T00:18:46.302Z,19.22
2019-02-22T00:21:19.549Z,19.22
2019-02-22T00:23:52.775Z,19.21
2019-02-22T00:26:26.038Z,19.19
2019-02-22T00:28:59.283Z,19.19
2019-02-22T00:31:32.534Z,19.18
2019-02-22T00:34:05.782Z,19.15
2019-02-22T00:36:39.069Z,19.13
2019-02-22T00:39:12.236Z,19.14
2019-02-22T00:41:45.491Z,19.11
2019-02-22T00:44:18.722Z,19.13
2019-02-22T00:46:51.977Z,19.11
2019-02-22T00:49:25.203Z,19.09
2019-02-22T00:51:58.453Z,19.11
2019-02-22T00:54:31.688Z,19.07
2019-02-22T00:57:04.948Z,19.09
2019-02-22T00:59:38.180Z,19.07
2019-02-22T01:02:11.435Z,19.06
2019-02-22T01:04:44.669Z,19.06
2019-02-22T01:07:17.921Z,19.05
2019-02-22T01:09:51.157Z,19.03
2019-02-22T01:12:24.408Z,19.00
2019-02-22T01:14:57.632Z,19.00
2019-02-22T01:17:30.879Z,19.01
2019-02-22T01:20:05.079Z,18.99
2019-02-22T01:22:38.316Z,18.99
2019-02-22T01:25:11.550Z,18.99
2019-02-22T01:27:44.802Z,18.98
2019-02-22T01:30:18.036Z,19.00
2019-02-22T01:32:51.294Z,18.95
2019-02-22T01:35:24.521Z,18.95
2019-02-22T01:37:57.773Z,18.95
2019-02-22T01:40:42.656Z,18.94
2019-02-22T01:43:05.955Z,18.94
2019-02-22T01:45:39.203Z,18.93
2019-02-22T01:48:12.441Z,18.94
2019-02-22T01:50:45.666Z,18.94
2019-02-22T01:53:18.940Z,18.92
2019-02-22T01:55:52.138Z,18.93
2019-02-22T01:58:25.393Z,18.92
2019-02-22T02:00:58.621Z,18.93
2019-02-22T02:03:32.160Z,18.94
2019-02-22T02:06:05.385Z,18.92
2019-02-22T02:08:38.644Z,18.92
2019-02-22T02:11:11.877Z,18.91
2019-02-22T02:13:45.139Z,18.88
2019-02-22T02:16:18.368Z,18.88
2019-02-22T02:18:51.728Z,18.86
2019-02-22T02:21:24.921Z,18.85
2019-02-22T02:23:58.175Z,18.84
2019-02-22T02:26:31.413Z,18.83
2019-02-22T02:29:05.730Z,18.82
2019-02-22T02:31:38.963Z,18.82
2019-02-22T02:34:12.213Z,18.80
2019-02-22T02:36:45.447Z,18.80
2019-02-22T02:39:18.705Z,18.79
2019-02-22T02:41:51.939Z,18.71
2019-02-22T02:44:25.190Z,18.80
2019-02-22T02:46:59.412Z,18.78
2019-02-22T02:49:32.881Z,18.77
2019-02-22T02:52:06.112Z,18.77
2019-02-22T02:54:39.369Z,18.76
2019-02-22T02:57:12.612Z,18.74
2019-02-22T02:59:45.872Z,18.71
2019-02-22T03:02:19.110Z,18.70
2019-02-22T03:04:52.359Z,18.72
2019-02-22T03:07:26.571Z,18.71
2019-02-22T03:09:59.827Z,18.74
2019-02-22T03:12:33.067Z,18.74
2019-02-22T03:15:11.356Z,18.74
2019-02-22T03:17:44.585Z,18.72
2019-02-22T03:20:17.842Z,18.73
2019-02-22T03:22:51.076Z,18.70
2019-02-22T03:25:24.333Z,18.72
2019-02-22T03:27:57.581Z,18.69
2019-02-22T03:30:30.835Z,18.67
2019-02-22T03:33:04.077Z,18.37
2019-02-22T03:35:37.330Z,18.66
2019-02-22T03:38:10.569Z,18.67
2019-02-22T03:40:43.812Z,18.67
2019-02-22T03:43:17.047Z,18.67
2019-02-22T03:45:50.322Z,18.64
2019-02-22T03:48:23.562Z,18.65
2019-02-22T03:50:56.823Z,18.62
2019-02-22T03:53:30.075Z,18.61
2019-02-22T03:56:03.599Z,18.60
2019-02-22T03:58:36.842Z,18.57
2019-02-22T04:01:10.086Z,18.59
2019-02-22T04:03:43.312Z,18.59
2019-02-22T04:06:16.582Z,18.57
2019-02-22T04:08:49.810Z,18.56
2019-02-22T04:11:23.057Z,18.55
2019-02-22T04:13:56.290Z,18.57
2019-02-22T04:16:29.540Z,18.56
2019-02-22T04:19:02.949Z,18.53
2019-02-22T04:21:36.194Z,18.54
2019-02-22T04:24:09.430Z,18.52
2019-02-22T04:26:42.692Z,18.53
2019-02-22T04:29:15.919Z,18.52
2019-02-22T04:31:49.170Z,18.51
2019-02-22T04:34:22.398Z,18.49
2019-02-22T04:36:55.643Z,18.50
2019-02-22T04:39:28.877Z,18.48
2019-02-22T04:42:02.122Z,18.49
2019-02-22T04:44:35.354Z,18.48
2019-02-22T04:47:08.602Z,18.47
2019-02-22T04:49:41.835Z,18.48
2019-02-22T04:52:15.083Z,18.48
2019-02-22T04:54:48.315Z,18.46
2019-02-22T04:57:21.554Z,18.46
2019-02-22T04:59:54.795Z,18.45
2019-02-22T05:02:28.048Z,18.45
2019-02-22T05:05:01.286Z,18.43
2019-02-22T05:07:34.537Z,18.44
2019-02-22T05:10:08.844Z,18.43
2019-02-22T05:12:42.089Z,18.43
2019-02-22T05:15:15.321Z,18.40
2019-02-22T05:17:48.577Z,18.40
2019-02-22T05:20:21.808Z,18.42
2019-02-22T05:23:03.274Z,18.42
2019-02-22T05:25:29.997Z,18.40
2019-02-22T05:28:03.269Z,18.40
2019-02-22T05:30:36.699Z,18.40
2019-02-22T05:33:09.954Z,18.36
2019-02-22T05:35:43.169Z,18.38
2019-02-22T05:38:16.411Z,18.42
2019-02-22T05:40:49.644Z,18.55
2019-02-22T05:43:22.893Z,18.67
2019-02-22T05:45:56.126Z,18.80
2019-02-22T05:48:29.374Z,18.94
2019-02-22T05:51:02.622Z,19.10
2019-02-22T05:53:35.862Z,19.18
2019-02-22T05:56:09.102Z,19.28
2019-02-22T05:58:42.359Z,19.53
2019-02-22T06:01:15.597Z,19.60
2019-02-22T06:03:48.847Z,19.52
2019-02-22T06:06:23.162Z,19.50
2019-02-22T06:08:56.414Z,19.51
2019-02-22T06:11:29.734Z,19.49
2019-02-22T06:14:02.913Z,19.48
2019-02-22T06:16:36.155Z,19.49
2019-02-22T06:19:09.404Z,19.48
2019-02-22T06:21:42.644Z,19.50
2019-02-22T06:24:16.245Z,19.48
2019-02-22T06:26:49.477Z,19.45
2019-02-22T06:29:22.724Z,19.42
2019-02-22T06:31:55.964Z,19.44
2019-02-22T06:34:29.218Z,19.47
2019-02-22T06:37:02.611Z,19.46
2019-02-22T06:39:36.949Z,19.47
2019-02-22T06:42:10.195Z,19.52
2019-02-22T06:44:43.447Z,19.58
2019-02-22T06:47:16.693Z,19.61
2019-02-22T06:49:49.964Z,19.66
2019-02-22T06:52:23.192Z,19.69
2019-02-22T06:54:56.442Z,19.74
2019-02-22T06:57:29.680Z,19.81
2019-02-22T07:00:08.184Z,19.83
2019-02-22T07:02:41.420Z,19.86
2019-02-22T07:05:14.671Z,19.84
2019-02-22T07:07:48.064Z,19.90
2019-02-22T07:10:21.346Z,19.89
2019-02-22T07:12:56.970Z,19.95
2019-02-22T07:15:29.541Z,19.97
2019-02-22T07:18:02.779Z,19.97
2019-02-22T07:20:36.035Z,19.98
2019-02-22T07:23:09.277Z,19.99
2019-02-22T07:25:42.522Z,20.05
2019-02-22T07:28:15.764Z,20.06
2019-02-22T07:30:49.024Z,20.09
2019-02-22T07:33:22.259Z,20.13
2019-02-22T07:35:55.509Z,20.19
2019-02-22T07:38:28.759Z,20.20
2019-02-22T07:41:02.006Z,20.22
2019-02-22T07:43:35.238Z,20.23
2019-02-22T07:46:08.487Z,20.22
2019-02-22T07:48:41.735Z,20.18
2019-02-22T07:51:14.989Z,20.16
2019-02-22T07:53:48.227Z,19.86
2019-02-22T07:56:21.473Z,20.17
2019-02-22T07:58:54.706Z,20.11
2019-02-22T08:01:27.971Z,20.14
2019-02-22T08:04:01.208Z,20.14
2019-02-22T08:06:34.474Z,20.14
2019-02-22T08:09:07.702Z,20.21
2019-02-22T08:11:40.966Z,20.24
2019-02-22T08:14:14.205Z,20.25
2019-02-22T08:16:47.460Z,20.24
2019-02-22T08:19:20.975Z,20.24
2019-02-22T08:21:54.230Z,20.24
2019-02-22T08:24:27.461Z,20.25
2019-02-22T08:27:00.714Z,20.21
2019-02-22T08:29:33.951Z,20.19
2019-02-22T08:32:07.194Z,20.21
2019-02-22T08:34:40.425Z,20.19
2019-02-22T08:37:13.668Z,20.14
2019-02-22T08:39:58.182Z,20.10
2019-02-22T08:42:22.172Z,20.09
2019-02-22T08:44:55.423Z,20.05
2019-02-22T08:47:28.661Z,20.04
2019-02-22T08:50:01.896Z,20.01
2019-02-22T08:52:35.148Z,19.98
2019-02-22T08:55:08.383Z,19.93
2019-02-22T08:57:41.645Z,19.94
2019-02-22T09:00:14.885Z,19.92
2019-02-22T09:02:48.150Z,19.88
2019-02-22T09:05:21.366Z,19.87
2019-02-22T09:07:54.609Z,19.88
2019-02-22T09:10:27.841Z,19.87
2019-02-22T09:13:01.263Z,19.83
2019-02-22T09:15:34.561Z,19.81
2019-02-22T09:18:07.809Z,19.82
2019-02-22T09:20:41.053Z,19.80
2019-02-22T09:23:14.307Z,19.86
2019-02-22T09:25:47.545Z,19.81
2019-02-22T09:28:20.803Z,19.78
2019-02-22T09:30:54.038Z,19.77
2019-02-22T09:33:27.307Z,19.76
2019-02-22T09:36:00.539Z,19.74
2019-02-22T09:38:33.776Z,19.77
2019-02-22T09:41:07.014Z,19.78
2019-02-22T09:43:40.250Z,19.79
2019-02-22T09:46:13.487Z,19.86
2019-02-22T09:48:47.079Z,19.90
2019-02-22T09:51:20.248Z,19.91
2019-02-22T09:53:53.498Z,19.85
2019-02-22T09:56:26.738Z,19.83
2019-02-22T09:58:59.999Z,19.82
2019-02-22T10:01:33.236Z,19.77
2019-02-22T10:04:06.485Z,19.73
2019-02-22T10:06:39.723Z,19.73
2019-02-22T10:09:12.975Z,19.71
2019-02-22T10:11:46.206Z,19.71
2019-02-22T10:14:19.453Z,19.68
2019-02-22T10:16:52.695Z,19.67
2019-02-22T10:19:25.954Z,19.46
2019-02-22T10:21:59.185Z,19.67
2019-02-22T10:24:32.424Z,19.65
2019-02-22T10:27:05.656Z,19.63
2019-02-22T10:29:38.889Z,19.66
2019-02-22T10:32:12.121Z,19.63
2019-02-22T10:34:45.376Z,19.62
2019-02-22T10:37:18.616Z,19.61
2019-02-22T10:39:51.855Z,19.62
2019-02-22T10:42:25.089Z,19.60
2019-02-22T10:44:58.576Z,19.61
2019-02-22T10:47:31.810Z,19.64
2019-02-22T10:50:07.201Z,19.62
2019-02-22T10:52:40.432Z,19.59
2019-02-22T10:55:14.113Z,19.57
2019-02-22T10:57:47.352Z,19.60
2019-02-22T11:00:20.608Z,19.63
2019-02-22T11:02:53.842Z,19.61
2019-02-22T11:05:27.103Z,19.59
2019-02-22T11:08:00.335Z,19.59
2019-02-22T11:10:33.579Z,19.71
2019-02-22T11:13:06.823Z,19.76
2019-02-22T11:15:40.077Z,19.80
2019-02-22T11:18:13.314Z,19.77
2019-02-22T11:20:46.554Z,19.68
2019-02-22T11:23:19.783Z,19.63
2019-02-22T11:25:53.028Z,19.59
2019-02-22T11:28:26.261Z,19.58
2019-02-22T11:30:59.523Z,19.60
2019-02-22T11:33:32.755Z,19.43
2019-02-22T11:36:06.011Z,19.61
2019-02-22T11:38:39.250Z,19.60
2019-02-22T11:41:12.509Z,19.56
2019-02-22T11:43:45.817Z,19.54
2019-02-22T11:46:20.152Z,19.53
2019-02-22T11:48:53.393Z,19.52
2019-02-22T11:51:26.654Z,19.54
2019-02-22T11:53:59.886Z,19.53
2019-02-22T11:56:33.144Z,19.55
2019-02-22T11:59:06.385Z,19.56
2019-02-22T12:01:39.645Z,19.53
2019-02-22T12:04:12.878Z,19.53
2019-02-22T12:06:46.128Z,19.51
2019-02-22T12:09:19.375Z,19.51
2019-02-22T12:11:52.622Z,19.49
2019-02-22T12:14:25.864Z,19.57
2019-02-22T12:16:59.110Z,19.58
2019-02-22T12:19:32.346Z,19.57
2019-02-22T12:22:05.676Z,19.53
2019-02-22T12:24:39.931Z,19.54
2019-02-22T12:27:14.230Z,19.57
2019-02-22T12:29:47.615Z,19.59
2019-02-22T12:32:20.861Z,19.56
2019-02-22T12:34:54.376Z,19.56
2019-02-22T12:37:27.630Z,19.25
2019-02-22T12:40:00.874Z,19.49
2019-02-22T12:42:34.186Z,19.47
2019-02-22T12:45:11.267Z,19.44
2019-02-22T12:47:44.512Z,19.41
2019-02-22T12:50:17.751Z,19.40
2019-02-22T12:52:51.324Z,19.40
2019-02-22T12:55:24.568Z,19.34
2019-02-22T12:57:57.824Z,19.34
2019-02-22T13:00:32.059Z,19.33
2019-02-22T13:03:05.291Z,19.32
2019-02-22T13:05:38.522Z,19.32
2019-02-22T13:08:11.773Z,19.28
2019-02-22T13:10:45.005Z,19.25
2019-02-22T13:13:18.247Z,19.28
2019-02-22T13:15:51.480Z,19.28
2019-02-22T13:18:24.735Z,19.27
2019-02-22T13:20:57.985Z,19.27
2019-02-22T13:23:31.209Z,19.29
2019-02-22T13:26:04.442Z,19.27
2019-02-22T13:28:37.688Z,19.28
2019-02-22T13:31:10.917Z,19.26
2019-02-22T13:33:44.176Z,19.21
2019-02-22T13:36:17.410Z,19.25
2019-02-22T13:38:50.649Z,19.30
2019-02-22T13:41:23.881Z,19.34
2019-02-22T13:43:58.101Z,19.43
2019-02-22T13:46:32.305Z,19.54
2019-02-22T13:49:05.560Z,19.59
2019-02-22T13:51:38.791Z,19.67
2019-02-22T13:54:12.300Z,19.76
2019-02-22T13:56:45.539Z,19.78
2019-02-22T13:59:18.857Z,19.85
2019-02-22T14:01:52.087Z,19.88
2019-02-22T14:04:25.334Z,19.94
2019-02-22T14:06:58.574Z,20.00
2019-02-22T14:09:31.818Z,19.75
2019-02-22T14:12:05.059Z,20.06
2019-02-22T14:14:38.302Z,20.09
2019-02-22T14:17:11.536Z,20.10
2019-02-22T14:19:44.788Z,20.12
2019-02-22T14:22:18.021Z,20.11
2019-02-22T14:24:51.259Z,20.04
2019-02-22T14:27:24.488Z,20.11
2019-02-22T14:29:57.733Z,20.11
2019-02-22T14:32:30.970Z,20.16
2019-02-22T14:35:05.246Z,20.15
2019-02-22T14:37:38.592Z,20.17
2019-02-22T14:40:12.644Z,20.18
2019-02-22T14:42:45.872Z,20.23
2019-02-22T14:45:19.121Z,20.24
2019-02-22T14:47:52.346Z,20.26
2019-02-22T14:50:25.601Z,20.25
2019-02-22T14:52:59.159Z,20.25
2019-02-22T14:55:32.412Z,20.26
2019-02-22T14:58:05.646Z,20.23
2019-02-22T15:00:38.890Z,20.25
2019-02-22T15:03:12.120Z,20.23
2019-02-22T15:05:45.372Z,20.26
2019-02-22T15:08:18.611Z,20.07
2019-02-22T15:10:51.865Z,20.06
2019-02-22T15:13:25.100Z,20.13
2019-02-22T15:16:01.797Z,20.13
2019-02-22T15:18:33.508Z,20.17
2019-02-22T15:21:06.983Z,20.15
2019-02-22T15:23:40.224Z,20.21
2019-02-22T15:26:13.482Z,20.15
2019-02-22T15:28:48.344Z,20.14
2019-02-22T15:31:21.577Z,20.09
2019-02-22T15:33:57.209Z,20.06
2019-02-22T15:36:30.056Z,20.01
2019-02-22T15:39:04.521Z,20.01
2019-02-22T15:41:39.396Z,20.04
2019-02-22T15:44:12.643Z,20.04
2019-02-22T15:46:45.893Z,20.11
2019-02-22T15:49:21.790Z,20.11
2019-02-22T15:51:55.033Z,20.10
2019-02-22T15:54:28.276Z,20.11
2019-02-22T15:57:01.515Z,20.13
2019-02-22T15:59:34.736Z,20.09
2019-02-22T16:02:07.980Z,20.01
2019-02-22T16:04:41.211Z,20.03
2019-02-22T16:07:14.444Z,20.04
2019-02-22T16:09:47.678Z,20.08
2019-02-22T16:12:20.919Z,20.08
2019-02-22T16:14:54.151Z,20.07
2019-02-22T16:17:27.389Z,20.08
2019-02-22T16:20:00.622Z,20.11
2019-02-22T16:22:33.861Z,20.15
2019-02-22T16:25:18.569Z,20.11
2019-02-22T16:27:42.039Z,20.09
2019-02-22T16:30:16.036Z,20.03
2019-02-22T16:32:49.283Z,20.01
2019-02-22T16:35:22.514Z,20.00
2019-02-22T16:37:55.762Z,20.06
2019-02-22T16:40:28.993Z,20.08
2019-02-22T16:43:02.314Z,20.10
2019-02-22T16:45:35.554Z,20.10
2019-02-22T16:48:08.786Z,20.14
2019-02-22T16:50:42.020Z,20.15
2019-02-22T16:53:15.507Z,20.12
2019-02-22T16:55:48.742Z,20.05
2019-02-22T16:58:21.976Z,20.03
2019-02-22T17:00:55.214Z,19.99
2019-02-22T17:03:28.456Z,19.99
2019-02-22T17:06:01.982Z,20.02
2019-02-22T17:08:35.230Z,20.06
2019-02-22T17:11:08.461Z,20.10
2019-02-22T17:13:41.695Z,20.09
2019-02-22T17:16:16.622Z,20.08
2019-02-22T17:18:49.867Z,20.07
2019-02-22T17:21:23.095Z,20.00
2019-02-22T17:23:57.304Z,19.99
2019-02-22T17:26:30.531Z,19.97
2019-02-22T17:29:03.784Z,19.96
2019-02-22T17:31:37.018Z,19.99
2019-02-22T17:34:10.258Z,20.04
2019-02-22T17:36:43.488Z,20.04
2019-02-22T17:39:16.727Z,20.05
2019-02-22T17:41:49.953Z,20.06
2019-02-22T17:44:23.205Z,20.05
2019-02-22T17:46:57.901Z,20.04
2019-02-22T17:49:31.379Z,20.00
2019-02-22T17:52:04.614Z,19.99
2019-02-22T17:54:37.853Z,19.96
2019-02-22T17:57:11.080Z,19.98
2019-02-22T17:59:44.334Z,20.02
2019-02-22T18:02:17.564Z,20.00
2019-02-22T18:04:50.806Z,20.06
2019-02-22T18:07:24.033Z,20.10
2019-02-22T18:09:57.269Z,20.08
2019-02-22T18:12:30.765Z,20.05
2019-02-22T18:15:06.651Z,20.00
2019-02-22T18:17:41.822Z,20.01
2019-02-22T18:20:15.076Z,20.03
2019-02-22T18:22:48.306Z,20.04
2019-02-22T18:25:21.561Z,20.03
2019-02-22T18:27:54.795Z,20.01
2019-02-22T18:30:28.036Z,19.95
2019-02-22T18:33:01.260Z,19.94
2019-02-22T18:35:34.543Z,19.90
2019-02-22T18:38:07.734Z,19.90
2019-02-22T18:40:40.987Z,19.90
2019-02-22T18:43:14.212Z,19.88
2019-02-22T18:45:47.461Z,19.91
2019-02-22T18:48:20.695Z,19.97
2019-02-22T18:50:53.951Z,20.03
2019-02-22T18:53:27.176Z,20.07
2019-02-22T18:56:00.439Z,20.02
2019-02-22T18:58:33.664Z,20.03
2019-02-22T19:01:06.900Z,19.96
2019-02-22T19:03:40.129Z,19.97
2019-02-22T19:06:13.368Z,19.96
2019-02-22T19:08:46.604Z,19.99
2019-02-22T19:11:19.857Z,20.00
2019-02-22T19:13:53.086Z,19.99
2019-02-22T19:16:26.321Z,19.98
2019-02-22T19:18:59.559Z,19.93
2019-02-22T19:21:32.806Z,19.90
2019-02-22T19:24:06.029Z,19.87
2019-02-22T19:26:39.282Z,19.91
2019-02-22T19:29:12.515Z,19.93
2019-02-22T19:31:45.755Z,19.94
2019-02-22T19:34:18.990Z,19.92
2019-02-22T19:36:52.232Z,19.92
2019-02-22T19:39:25.557Z,19.87
2019-02-22T19:41:58.784Z,19.86
2019-02-22T19:44:32.019Z,19.86
2019-02-22T19:47:05.261Z,19.85
2019-02-22T19:49:38.490Z,19.90
2019-02-22T19:52:11.732Z,19.90
2019-02-22T19:54:45.003Z,19.96
2019-02-22T19:57:18.219Z,20.02
2019-02-22T19:59:51.445Z,20.07
2019-02-22T20:02:24.685Z,20.07
2019-02-22T20:04:57.917Z,20.06
2019-02-22T20:07:31.175Z,19.97
2019-02-22T20:10:17.433Z,19.97
2019-02-22T20:12:42.693Z,19.99
2019-02-22T20:15:16.567Z,20.02
2019-02-22T20:17:54.571Z,20.06
2019-02-22T20:20:24.747Z,20.02
2019-02-22T20:22:57.997Z,19.73
2019-02-22T20:25:32.854Z,20.01
2019-02-22T20:28:06.104Z,19.99
2019-02-22T20:30:39.523Z,19.93
2019-02-22T20:33:12.761Z,19.94
2019-02-22T20:35:47.124Z,19.97
2019-02-22T20:38:20.388Z,20.02
2019-02-22T20:40:53.622Z,20.01
2019-02-22T20:43:26.860Z,20.01
2019-02-22T20:46:00.088Z,20.02
2019-02-22T20:48:33.332Z,19.94
2019-02-22T20:51:06.567Z,19.91
2019-02-22T20:53:39.807Z,19.92
2019-02-22T20:56:13.038Z,19.94
2019-02-22T20:58:46.283Z,20.00
2019-02-22T21:01:19.518Z,19.98
2019-02-22T21:03:52.779Z,19.98
2019-02-22T21:06:26.013Z,19.97
2019-02-22T21:08:59.248Z,19.95
2019-02-22T21:11:32.480Z,19.89
2019-02-22T21:14:05.731Z,19.87
2019-02-22T21:16:38.967Z,19.90
2019-02-22T21:19:12.204Z,19.94
2019-02-22T21:21:46.516Z,19.96
2019-02-22T21:24:19.754Z,19.94
2019-02-22T21:26:52.988Z,19.94
2019-02-22T21:29:27.311Z,19.92
2019-02-22T21:32:00.647Z,19.88
2019-02-22T21:34:33.904Z,19.84
2019-02-22T21:37:07.133Z,19.85
2019-02-22T21:39:40.371Z,19.88
2019-02-22T21:42:20.198Z,19.92
2019-02-22T21:44:48.548Z,19.92
2019-02-22T21:47:21.787Z,19.93
2019-02-22T21:49:55.017Z,19.93
2019-02-22T21:52:28.280Z,19.95
2019-02-22T21:55:01.515Z,19.92
2019-02-22T21:57:35.035Z,19.87
2019-02-22T22:00:23.789Z,19.84
2019-02-22T22:02:57.038Z,19.85
2019-02-22T22:05:30.293Z,19.84
2019-02-22T22:08:03.533Z,19.77
2019-02-22T22:10:36.777Z,19.76
2019-02-22T22:13:10.018Z,19.76
2019-02-22T22:15:43.261Z,19.76
2019-02-22T22:18:16.693Z,19.77
2019-02-22T22:20:49.925Z,19.76
2019-02-22T22:23:23.176Z,19.75
2019-02-22T22:25:56.409Z,19.70
2019-02-22T22:28:29.696Z,19.64
2019-02-22T22:31:02.941Z,19.64
2019-02-22T22:33:36.181Z,19.64
2019-02-22T22:36:09.414Z,19.67
2019-02-22T22:38:42.650Z,19.65
2019-02-22T22:41:15.889Z,19.59
2019-02-22T22:43:49.135Z,19.57
2019-02-22T22:46:22.365Z,19.54
2019-02-22T22:48:55.611Z,19.54
2019-02-22T22:51:28.842Z,19.53
2019-02-22T22:54:02.089Z,19.49
2019-02-22T22:56:35.324Z,19.49
2019-02-22T22:59:08.579Z,19.48
2019-02-22T23:01:41.809Z,19.50
2019-02-22T23:04:16.129Z,19.51
2019-02-22T23:06:49.372Z,19.46
2019-02-22T23:09:22.633Z,19.44
2019-02-22T23:11:55.871Z,19.42
2019-02-22T23:14:29.125Z,19.39
2019-02-22T23:17:02.361Z,19.38
2019-02-22T23:19:35.635Z,19.36
2019-02-22T23:22:08.861Z,19.34
2019-02-22T23:24:42.110Z,19.33
2019-02-22T23:27:15.341Z,19.31
2019-02-22T23:29:48.603Z,19.30
2019-02-22T23:32:21.841Z,19.29
2019-02-22T23:34:55.090Z,19.27
2019-02-22T23:37:28.328Z,19.26
2019-02-22T23:40:01.577Z,19.21
2019-02-22T23:42:34.815Z,19.22
2019-02-22T23:45:08.064Z,19.21
2019-02-22T23:47:41.313Z,19.20
2019-02-22T23:50:14.549Z,19.16
2019-02-22T23:52:47.798Z,18.86
2019-02-22T23:55:21.037Z,19.11
2019-02-22T23:57:54.272Z,19.10
